Time;durP1;ratioP1;P1;durP2;ratioP2;P2;SDS_P1;SDS_P2;PMS_P1;PMS_P2;Temp;Humidity;BMP_temperature;BMP_pressure;BME280_temperature;BME280_humidity;BME280_pressure;Samples;Min_cycle;Max_cycle;Signal;HPM_P1;HPM_P2
2023/05/14 00:00:23;;;;;;;;;;;;;;;11.68;100.00;96102.56;4962120;28;19941;-85
2023/05/14 00:02:51;;;;;;;;;;;;;;;11.69;100.00;96106.09;4969964;28;20035;-86
2023/05/14 00:05:17;;;;;;;;;;;;;;;11.68;100.00;96099.03;4966654;28;19953;-87
2023/05/14 00:07:44;;;;;;;;;;;;;;;11.66;100.00;96095.75;4959457;28;19946;-85
2023/05/14 00:10:11;;;;;;;;;;;;;;;11.66;100.00;96096.56;4968719;28;20043;-86
2023/05/14 00:12:39;;;;;;;;;;;;;;;11.69;100.00;96090.69;4970639;28;19943;-85
2023/05/14 00:15:06;;;;;;;;;;;;;;;11.72;100.00;96092.09;4971672;28;19949;-85
2023/05/14 00:17:33;;;;;;;;;;;;;;;11.73;100.00;96089.16;4966053;28;20058;-85
2023/05/14 00:20:00;;;;;;;;;;;;;;;11.71;100.00;96093.97;4981589;28;20045;-86
2023/05/14 00:22:27;;;;;;;;;;;;;;;11.70;100.00;96095.03;4969533;28;20024;-84
2023/05/14 00:24:54;;;;;;;;;;;;;;;11.71;100.00;96087.75;4989304;28;19954;-82
2023/05/14 00:27:20;;;;;;;;;;;;;;;11.73;100.00;96082.91;4985743;28;19957;-86
2023/05/14 00:29:48;;;;;;;;;;;;;;;11.73;100.00;96086.44;4968942;28;19951;-85
2023/05/14 00:32:15;;;;;;;;;;;;;;;11.75;100.00;96083.50;4960979;28;19992;-86
2023/05/14 00:34:42;;;;;;;;;;;;;;;11.77;100.00;96075.97;4974922;28;19946;-85
2023/05/14 00:37:09;;;;;;;;;;;;;;;11.80;100.00;96080.09;4969088;28;19968;-85
2023/05/14 00:39:36;;;;;;;;;;;;;;;11.80;100.00;96075.50;4969876;28;19946;-86
2023/05/14 00:42:03;;;;;;;;;;;;;;;11.83;100.00;96082.28;4968910;28;19953;-85
2023/05/14 00:44:29;;;;;;;;;;;;;;;11.85;100.00;96077.44;4969681;28;19950;-86
2023/05/14 00:46:58;;;;;;;;;;;;;;;11.85;100.00;96080.16;4968265;28;19951;-86
2023/05/14 00:49:25;;;;;;;;;;;;;;;11.82;100.00;96072.56;4960858;28;19945;-87
2023/05/14 00:51:52;;;;;;;;;;;;;;;11.83;100.00;96068.75;4985556;28;20046;-86
2023/05/14 00:54:20;;;;;;;;;;;;;;;11.82;100.00;96077.97;4964517;28;19948;-86
2023/05/14 00:56:48;;;;;;;;;;;;;;;11.78;100.00;96077.63;4953343;28;19959;-85
2023/05/14 00:59:14;;;;;;;;;;;;;;;11.78;100.00;96071.38;4960300;28;19946;-85
2023/05/14 01:01:42;;;;;;;;;;;;;;;11.77;100.00;96075.16;4965523;28;20008;-86
2023/05/14 01:04:10;;;;;;;;;;;;;;;11.77;100.00;96070.56;4967434;28;20281;-86
2023/05/14 01:06:42;;;;;;;;;;;;;;;11.72;100.00;96070.47;4983988;28;19948;-86
2023/05/14 01:09:14;;;;;;;;;;;;;;;11.69;100.00;96071.75;4962997;28;19953;-85
2023/05/14 01:11:45;;;;;;;;;;;;;;;11.67;100.00;96070.34;4966100;28;19950;-85
2023/05/14 01:14:15;;;;;;;;;;;;;;;11.68;100.00;96070.09;4968401;28;20004;-86
2023/05/14 01:16:43;;;;;;;;;;;;;;;11.68;100.00;96061.19;4961961;28;19969;-86
2023/05/14 01:19:21;;;;;;;;;;;;;;;11.69;100.00;96063.63;4959464;28;19975;-86
2023/05/14 01:21:49;;;;;;;;;;;;;;;11.66;100.00;96058.72;4954769;28;19947;-85
2023/05/14 01:24:16;;;;;;;;;;;;;;;11.60;100.00;96064.28;4979178;28;19953;-87
2023/05/14 01:26:44;;;;;;;;;;;;;;;11.59;100.00;96062.63;4951999;28;19942;-87
2023/05/14 01:29:15;;;;;;;;;;;;;;;11.58;100.00;96064.50;4979879;28;19956;-86
2023/05/14 01:31:44;;;;;;;;;;;;;;;11.58;100.00;96056.41;4966603;28;19948;-86
2023/05/14 01:34:11;;;;;;;;;;;;;;;11.58;100.00;96066.41;4974654;28;19952;-86
2023/05/14 01:36:38;;;;;;;;;;;;;;;11.60;100.00;96067.81;4970650;28;19953;-86
2023/05/14 01:39:08;;;;;;;;;;;;;;;11.64;100.00;96070.84;4959222;28;19980;-85
2023/05/14 01:41:36;;;;;;;;;;;;;;;11.65;100.00;96056.28;4964955;28;19953;-86
2023/05/14 01:44:03;;;;;;;;;;;;;;;11.65;100.00;96061.69;4962744;28;19953;-87
2023/05/14 01:46:31;;;;;;;;;;;;;;;11.65;100.00;96062.47;4959708;28;19957;-85
2023/05/14 01:48:58;;;;;;;;;;;;;;;11.68;100.00;96063.88;4965578;28;19942;-85
2023/05/14 01:51:25;;;;;;;;;;;;;;;11.72;100.00;96059.63;4968090;28;19955;-87
2023/05/14 01:53:52;;;;;;;;;;;;;;;11.66;100.00;96063.28;4966542;28;20004;-86
2023/05/14 01:56:22;;;;;;;;;;;;;;;11.58;100.00;96052.88;4960227;28;19956;-84
2023/05/14 01:58:49;;;;;;;;;;;;;;;11.50;100.00;96056.81;4981003;28;19969;-83
2023/05/14 02:01:16;;;;;;;;;;;;;;;11.49;100.00;96059.75;4978643;28;20038;-84
2023/05/14 02:03:43;;;;;;;;;;;;;;;11.48;100.00;96058.13;4978351;28;19947;-85
2023/05/14 02:06:10;;;;;;;;;;;;;;;11.50;100.00;96054.09;4963658;28;19951;-86
2023/05/14 02:08:37;;;;;;;;;;;;;;;11.50;100.00;96047.88;4964774;28;20000;-86
2023/05/14 02:11:03;;;;;;;;;;;;;;;11.51;100.00;96047.63;4961975;28;19946;-85
2023/05/14 02:13:31;;;;;;;;;;;;;;;11.51;100.00;96044.94;4966678;28;19948;-86
2023/05/14 02:15:58;;;;;;;;;;;;;;;11.55;100.00;96045.28;4980879;28;19942;-86
2023/05/14 02:18:25;;;;;;;;;;;;;;;11.56;100.00;96041.50;4969640;28;20038;-86
2023/05/14 02:20:52;;;;;;;;;;;;;;;11.57;100.00;96043.16;4963929;28;19949;-86
2023/05/14 02:23:19;;;;;;;;;;;;;;;11.55;100.00;96046.09;4963810;28;20003;-86
2023/05/14 02:25:46;;;;;;;;;;;;;;;11.50;100.00;96040.56;4966006;28;19962;-86
2023/05/14 02:28:12;;;;;;;;;;;;;;;11.51;100.00;96038.69;4965429;28;19960;-85
2023/05/14 02:30:41;;;;;;;;;;;;;;;11.50;100.00;96039.75;4967127;28;19948;-85
2023/05/14 02:33:08;;;;;;;;;;;;;;;11.48;100.00;96034.63;4960462;28;19953;-85
2023/05/14 02:35:35;;;;;;;;;;;;;;;11.47;100.00;96034.84;4966373;28;20040;-85
2023/05/14 02:38:01;;;;;;;;;;;;;;;11.46;100.00;96039.44;4964330;28;19965;-85
2023/05/14 02:40:28;;;;;;;;;;;;;;;11.47;100.00;96032.16;4964654;28;20013;-86
2023/05/14 02:42:55;;;;;;;;;;;;;;;11.46;100.00;96030.50;4965669;28;20266;-85
2023/05/14 02:45:23;;;;;;;;;;;;;;;11.45;100.00;96032.38;4969132;28;20067;-85
2023/05/14 02:47:51;;;;;;;;;;;;;;;11.40;100.00;96036.91;4960692;28;19949;-85
2023/05/14 02:50:18;;;;;;;;;;;;;;;11.35;100.00;96035.72;4961775;28;19949;-86
2023/05/14 02:52:45;;;;;;;;;;;;;;;11.35;100.00;96030.31;4978678;28;19973;-85
2023/05/14 02:55:12;;;;;;;;;;;;;;;11.35;100.00;96030.31;4966396;28;19957;-87
2023/05/14 02:57:38;;;;;;;;;;;;;;;11.32;100.00;96030.78;4983967;28;19991;-85
2023/05/14 03:00:06;;;;;;;;;;;;;;;11.29;100.00;96028.59;4965570;28;19982;-86
2023/05/14 03:02:33;;;;;;;;;;;;;;;11.21;100.00;96031.69;4970926;28;19945;-85
2023/05/14 03:05:01;;;;;;;;;;;;;;;11.19;100.00;96036.50;4967959;28;19979;-86
2023/05/14 03:07:28;;;;;;;;;;;;;;;11.18;100.00;96031.34;4957783;28;19953;-86
2023/05/14 03:09:55;;;;;;;;;;;;;;;11.17;100.00;96027.81;4971462;28;20003;-84
2023/05/14 03:12:22;;;;;;;;;;;;;;;11.15;100.00;96029.09;4969338;28;19949;-86
2023/05/14 03:14:49;;;;;;;;;;;;;;;11.18;100.00;96026.75;4963730;28;19946;-86
2023/05/14 03:17:15;;;;;;;;;;;;;;;11.24;100.00;96033.88;4965926;28;20003;-85
2023/05/14 03:19:42;;;;;;;;;;;;;;;11.28;100.00;96024.25;4969257;28;19972;-86
2023/05/14 03:22:10;;;;;;;;;;;;;;;11.28;100.00;96029.66;4970426;28;19945;-85
2023/05/14 03:24:37;;;;;;;;;;;;;;;11.23;100.00;96021.44;4979783;28;19948;-85
2023/05/14 03:27:05;;;;;;;;;;;;;;;11.24;100.00;96019.56;4969054;28;19953;-86
2023/05/14 03:29:32;;;;;;;;;;;;;;;11.24;100.00;96014.16;4966443;28;20114;-86
2023/05/14 03:31:58;;;;;;;;;;;;;;;11.25;100.00;96016.63;4967891;28;19951;-86
2023/05/14 03:34:25;;;;;;;;;;;;;;;11.22;100.00;96014.41;4966869;28;19952;-85
2023/05/14 03:36:52;;;;;;;;;;;;;;;11.25;100.00;96030.13;4967651;28;19959;-85
2023/05/14 03:39:20;;;;;;;;;;;;;;;11.27;100.00;96017.19;4965070;28;19961;-85
2023/05/14 03:41:48;;;;;;;;;;;;;;;11.22;100.00;96019.81;4959356;28;19953;-86
2023/05/14 03:44:16;;;;;;;;;;;;;;;11.19;100.00;96025.69;4969400;28;20004;-86
2023/05/14 03:46:44;;;;;;;;;;;;;;;11.19;100.00;96025.69;4968597;28;19980;-86
2023/05/14 03:49:11;;;;;;;;;;;;;;;11.16;100.00;96028.88;4968279;28;19954;-85
2023/05/14 03:51:38;;;;;;;;;;;;;;;11.15;100.00;96026.41;4969565;28;20033;-86
2023/05/14 03:54:06;;;;;;;;;;;;;;;11.17;100.00;96033.22;4969594;28;19955;-86
2023/05/14 03:56:35;;;;;;;;;;;;;;;11.15;100.00;96026.41;4965709;28;19945;-85
2023/05/14 03:59:03;;;;;;;;;;;;;;;11.16;100.00;96028.06;4970352;28;19964;-85
2023/05/14 04:01:31;;;;;;;;;;;;;;;11.15;100.00;96023.69;4962443;28;19945;-86
2023/05/14 04:03:58;;;;;;;;;;;;;;;11.19;100.00;96024.88;4963233;28;19993;-86
2023/05/14 04:06:25;;;;;;;;;;;;;;;11.22;100.00;96024.41;4956404;28;19949;-85
2023/05/14 04:08:52;;;;;;;;;;;;;;;11.26;100.00;96015.56;4965682;28;20006;-85
2023/05/14 04:11:20;;;;;;;;;;;;;;;11.29;100.00;96014.25;4976288;28;19951;-86
2023/05/14 04:13:50;;;;;;;;;;;;;;;11.30;100.00;96016.72;4962396;28;19956;-86
2023/05/14 04:16:17;;;;;;;;;;;;;;;11.30;100.00;96016.72;4970014;28;19953;-86
2023/05/14 04:18:44;;;;;;;;;;;;;;;11.32;100.00;96016.47;4974639;28;19965;-83
2023/05/14 04:21:11;;;;;;;;;;;;;;;11.34;100.00;96017.88;4985467;28;19981;-83
2023/05/14 04:23:38;;;;;;;;;;;;;;;11.36;100.00;96014.91;4988223;28;19948;-83
2023/05/14 04:26:05;;;;;;;;;;;;;;;11.33;100.00;96020.81;4968411;28;19952;-85
2023/05/14 04:28:31;;;;;;;;;;;;;;;11.28;100.00;96018.84;4983330;28;19947;-86
2023/05/14 04:31:00;;;;;;;;;;;;;;;11.19;100.00;96025.69;4967216;28;19944;-85
2023/05/14 04:33:27;;;;;;;;;;;;;;;11.17;100.00;96033.22;4964834;28;19958;-85
2023/05/14 04:35:53;;;;;;;;;;;;;;;11.15;100.00;96023.69;4962945;28;19954;-85
2023/05/14 04:38:20;;;;;;;;;;;;;;;11.13;100.00;96031.25;4955917;28;19962;-85
2023/05/14 04:40:47;;;;;;;;;;;;;;;11.12;100.00;96029.63;4955420;28;19956;-85
2023/05/14 04:43:15;;;;;;;;;;;;;;;11.12;100.00;96030.44;4966731;28;19945;-86
2023/05/14 04:45:42;;;;;;;;;;;;;;;11.10;100.00;96035.25;4968027;28;19951;-86
2023/05/14 04:48:10;;;;;;;;;;;;;;;11.16;100.00;96038.84;4963674;28;19954;-85
2023/05/14 04:50:37;;;;;;;;;;;;;;;11.18;100.00;96042.16;4968251;28;19953;-85
2023/05/14 04:53:04;;;;;;;;;;;;;;;11.24;100.00;96043.88;4963449;28;19945;-85
2023/05/14 04:55:30;;;;;;;;;;;;;;;11.22;100.00;96040.63;4983227;28;20545;-86
2023/05/14 04:57:57;;;;;;;;;;;;;;;11.21;100.00;96045.19;4962602;28;19950;-85
2023/05/14 05:00:24;;;;;;;;;;;;;;;11.22;100.00;96037.91;4961709;28;19970;-85
2023/05/14 05:02:51;;;;;;;;;;;;;;;11.25;100.00;96045.53;4963617;28;19977;-86
2023/05/14 05:05:19;;;;;;;;;;;;;;;11.28;100.00;96043.16;4967439;28;19952;-85
2023/05/14 05:07:46;;;;;;;;;;;;;;;11.30;100.00;96048.34;4977433;28;20045;-85
2023/05/14 05:10:13;;;;;;;;;;;;;;;11.28;100.00;96048.56;4970506;28;20096;-86
2023/05/14 05:12:41;;;;;;;;;;;;;;;11.24;100.00;96049.28;4978719;28;19950;-85
2023/05/14 05:15:09;;;;;;;;;;;;;;;11.15;100.00;96048.03;4960869;28;19955;-86
2023/05/14 05:17:36;;;;;;;;;;;;;;;11.13;100.00;96051.00;4964675;28;20006;-86
2023/05/14 05:20:03;;;;;;;;;;;;;;;11.12;100.00;96057.47;4981227;28;19970;-85
2023/05/14 05:22:32;;;;;;;;;;;;;;;11.06;100.00;96052.19;4968523;28;19943;-86
2023/05/14 05:24:58;;;;;;;;;;;;;;;10.98;100.00;96056.06;4979570;28;19946;-85
2023/05/14 05:27:25;;;;;;;;;;;;;;;10.90;100.00;96048.34;4963728;28;20057;-86
2023/05/14 05:29:52;;;;;;;;;;;;;;;10.89;100.00;96058.31;4967401;28;19988;-85
2023/05/14 05:32:19;;;;;;;;;;;;;;;10.91;100.00;96056.22;4965739;28;19992;-85
2023/05/14 05:34:46;;;;;;;;;;;;;;;10.91;100.00;96050.00;4964026;28;20054;-85
2023/05/14 05:37:13;;;;;;;;;;;;;;;10.90;100.00;96059.16;4970635;28;20008;-86
2023/05/14 05:39:41;;;;;;;;;;;;;;;10.88;100.00;96051.31;4963646;28;19972;-86
2023/05/14 05:42:09;;;;;;;;;;;;;;;10.94;100.00;96052.22;4966871;28;19952;-86
2023/05/14 05:44:36;;;;;;;;;;;;;;;11.00;100.00;96049.38;4965397;28;19945;-86
2023/05/14 05:47:06;;;;;;;;;;;;;;;11.06;100.00;96053.00;4982622;28;20027;-84
2023/05/14 05:49:32;;;;;;;;;;;;;;;11.11;100.00;96044.19;4966107;28;19950;-85
2023/05/14 05:51:59;;;;;;;;;;;;;;;11.13;100.00;96042.88;4965364;28;19942;-85
2023/05/14 05:54:26;;;;;;;;;;;;;;;11.18;100.00;96045.69;4964924;28;19947;-85
2023/05/14 05:56:55;;;;;;;;;;;;;;;11.21;100.00;96053.31;4965399;28;19945;-86
2023/05/14 05:59:22;;;;;;;;;;;;;;;11.28;100.00;96050.47;4979195;28;19958;-86
2023/05/14 06:01:49;;;;;;;;;;;;;;;11.27;100.00;96046.09;4969947;28;20089;-85
2023/05/14 06:04:15;;;;;;;;;;;;;;;11.29;100.00;96042.13;4959563;28;20001;-85
2023/05/14 06:06:42;;;;;;;;;;;;;;;11.37;100.00;96043.59;4969699;28;19951;-85
2023/05/14 06:09:09;;;;;;;;;;;;;;;11.41;100.00;96044.75;4964945;28;19951;-86
2023/05/14 06:11:36;;;;;;;;;;;;;;;11.44;100.00;96043.44;4962240;28;20058;-86
2023/05/14 06:14:04;;;;;;;;;;;;;;;11.47;100.00;96037.56;4963396;28;20039;-85
2023/05/14 06:16:31;;;;;;;;;;;;;;;11.49;100.00;96043.53;4968749;28;19964;-85
2023/05/14 06:18:58;;;;;;;;;;;;;;;11.53;100.00;96037.41;4964461;28;20006;-85
2023/05/14 06:21:25;;;;;;;;;;;;;;;11.56;100.00;96042.34;4965818;28;19958;-86
2023/05/14 06:23:51;;;;;;;;;;;;;;;11.57;100.00;96053.97;4967653;28;19948;-86
2023/05/14 06:26:18;;;;;;;;;;;;;;;11.60;100.00;96048.06;4967945;28;19962;-85
2023/05/14 06:28:45;;;;;;;;;;;;;;;11.62;100.00;96051.34;4967212;28;19950;-86
2023/05/14 06:31:13;;;;;;;;;;;;;;;11.65;100.00;96045.47;4986334;28;19969;-85
2023/05/14 06:33:40;;;;;;;;;;;;;;;11.63;100.00;96044.88;4981484;28;20050;-85
2023/05/14 06:36:07;;;;;;;;;;;;;;;11.66;100.00;96042.47;4966897;28;19947;-85
2023/05/14 06:38:34;;;;;;;;;;;;;;;11.70;100.00;96043.66;4969803;28;19954;-86
2023/05/14 06:41:01;;;;;;;;;;;;;;;11.74;100.00;96049.38;4987776;28;19954;-85
2023/05/14 06:43:28;;;;;;;;;;;;;;;11.74;100.00;96044.81;4967455;28;19958;-86
2023/05/14 06:45:55;;;;;;;;;;;;;;;11.75;100.00;96046.47;4962515;28;20260;-85
2023/05/14 06:48:26;;;;;;;;;;;;;;;11.74;100.00;96043.97;4977146;28;19945;-86
2023/05/14 06:50:53;;;;;;;;;;;;;;;11.75;100.00;96046.47;4961040;28;20008;-86
2023/05/14 06:53:19;;;;;;;;;;;;;;;11.80;100.00;96040.31;4965969;28;19951;-86
2023/05/14 06:55:47;;;;;;;;;;;;;;;11.90;100.00;96036.97;4961055;28;20047;-85
2023/05/14 06:58:14;;;;;;;;;;;;;;;11.94;100.00;96044.34;4975156;28;19950;-85
2023/05/14 07:00:40;;;;;;;;;;;;;;;11.96;100.00;96041.41;4954892;28;20062;-85
2023/05/14 07:03:07;;;;;;;;;;;;;;;12.01;100.00;96034.16;4967020;28;19978;-85
2023/05/14 07:05:35;;;;;;;;;;;;;;;12.08;100.00;96034.81;4965130;28;20053;-86
2023/05/14 07:08:03;;;;;;;;;;;;;;;12.13;100.00;96037.63;4981965;28;19956;-86
2023/05/14 07:10:30;;;;;;;;;;;;;;;12.17;100.00;96031.69;4957703;28;20042;-85
2023/05/14 07:12:57;;;;;;;;;;;;;;;12.23;100.00;96030.72;4956507;28;19998;-85
2023/05/14 07:15:24;;;;;;;;;;;;;;;12.23;100.00;96036.13;4963713;28;19946;-86
2023/05/14 07:17:50;;;;;;;;;;;;;;;12.29;100.00;96035.13;4968876;28;19967;-86
2023/05/14 07:20:17;;;;;;;;;;;;;;;12.29;100.00;96035.97;4981473;28;19959;-85
2023/05/14 07:22:45;;;;;;;;;;;;;;;12.30;100.00;96025.94;4968089;28;20008;-85
2023/05/14 07:25:13;;;;;;;;;;;;;;;12.33;100.00;96036.28;4970247;28;19945;-86
2023/05/14 07:27:39;;;;;;;;;;;;;;;12.30;100.00;96023.25;4966306;28;19963;-86
2023/05/14 07:30:07;;;;;;;;;;;;;;;12.19;100.00;96032.28;4966361;28;19945;-85
2023/05/14 07:32:34;;;;;;;;;;;;;;;12.15;100.00;96023.03;4984959;28;20045;-86
2023/05/14 07:35:01;;;;;;;;;;;;;;;12.09;100.00;96028.34;4968522;28;19948;-85
2023/05/14 07:37:28;;;;;;;;;;;;;;;12.13;100.00;96029.50;4966191;28;19990;-85
2023/05/14 07:39:56;;;;;;;;;;;;;;;12.22;100.00;96026.38;4966490;28;19962;-85
2023/05/14 07:42:22;;;;;;;;;;;;;;;12.25;100.00;96020.47;4971213;28;19949;-85
2023/05/14 07:44:50;;;;;;;;;;;;;;;12.27;100.00;96023.72;4961654;28;19951;-84
2023/05/14 07:47:16;;;;;;;;;;;;;;;12.29;100.00;96014.28;4968100;28;19956;-86
2023/05/14 07:49:44;;;;;;;;;;;;;;;12.23;100.00;96011.78;4965421;28;19999;-86
2023/05/14 07:52:11;;;;;;;;;;;;;;;12.20;100.00;96010.38;4966785;28;19947;-85
2023/05/14 07:54:37;;;;;;;;;;;;;;;12.23;100.00;96014.47;4967565;28;19956;-86
2023/05/14 07:57:08;;;;;;;;;;;;;;;12.31;100.00;96005.94;4977276;28;19950;-87
2023/05/14 07:59:35;;;;;;;;;;;;;;;12.34;100.00;96014.34;4976642;28;20164;-85
2023/05/14 08:02:02;;;;;;;;;;;;;;;12.34;100.00;96008.13;4973493;28;20349;-86
2023/05/14 08:04:29;;;;;;;;;;;;;;;12.40;100.00;96009.84;5006860;28;19936;-85
2023/05/14 08:06:57;;;;;;;;;;;;;;;12.34;100.00;96014.34;4973874;28;19957;-85
2023/05/14 08:09:24;;;;;;;;;;;;;;;12.39;100.00;96014.44;4967953;28;19957;-86
2023/05/14 08:11:50;;;;;;;;;;;;;;;12.43;100.00;96009.34;4981642;28;19950;-88
2023/05/14 08:14:20;;;;;;;;;;;;;;;12.52;100.00;96008.66;4985042;28;19959;-86
2023/05/14 08:16:47;;;;;;;;;;;;;;;12.55;100.00;96004.63;4992908;28;19996;-82
2023/05/14 08:19:14;;;;;;;;;;;;;;;12.57;100.00;95999.78;4999833;28;19967;-82
2023/05/14 08:21:41;;;;;;;;;;;;;;;12.52;100.00;95997.00;5000240;28;19953;-86
2023/05/14 08:24:08;;;;;;;;;;;;;;;12.53;100.00;95993.22;4967958;28;20067;-87
2023/05/14 08:26:35;;;;;;;;;;;;;;;12.50;100.00;95993.75;4965597;28;19965;-83
2023/05/14 08:29:02;;;;;;;;;;;;;;;12.61;100.00;95994.69;4980969;28;19987;-82
2023/05/14 08:31:31;;;;;;;;;;;;;;;12.64;100.00;95995.00;4968170;28;20004;-83
2023/05/14 08:33:59;;;;;;;;;;;;;;;12.65;100.00;95993.94;4984790;28;20068;-83
2023/05/14 08:36:25;;;;;;;;;;;;;;;12.69;100.00;95996.94;4965320;28;19958;-83
2023/05/14 08:38:52;;;;;;;;;;;;;;;12.63;100.00;95996.06;4982504;28;19961;-83
2023/05/14 08:41:20;;;;;;;;;;;;;;;12.60;100.00;96003.88;4966496;28;19963;-83
2023/05/14 08:43:54;;;;;;;;;;;;;;;12.65;100.00;95999.34;4968897;28;19990;-82
2023/05/14 08:46:23;;;;;;;;;;;;;;;12.71;100.00;96001.06;4961933;28;20066;-82
2023/05/14 08:48:56;;;;;;;;;;;;;;;12.68;100.00;95998.00;4963832;28;19991;-85
2023/05/14 08:51:23;;;;;;;;;;;;;;;12.77;100.00;96005.44;4980038;28;19945;-84
2023/05/14 08:53:50;;;;;;;;;;;;;;;12.81;100.00;95989.53;4973490;28;19978;-84
2023/05/14 08:56:18;;;;;;;;;;;;;;;12.95;100.00;95993.47;4985439;28;19955;-83
2023/05/14 08:58:44;;;;;;;;;;;;;;;13.11;100.00;95991.75;4982492;28;19994;-83
2023/05/14 09:01:12;;;;;;;;;;;;;;;13.15;100.00;95995.63;4955504;28;20008;-84
2023/05/14 09:03:39;;;;;;;;;;;;;;;13.14;100.00;95991.28;4969800;28;19956;-83
2023/05/14 09:06:08;;;;;;;;;;;;;;;13.11;100.00;95987.16;4959709;28;19949;-86
2023/05/14 09:08:37;;;;;;;;;;;;;;;13.16;100.00;95981.00;4964864;28;19945;-85
2023/05/14 09:11:04;;;;;;;;;;;;;;;13.11;100.00;95989.03;4967321;28;19943;-85
2023/05/14 09:13:31;;;;;;;;;;;;;;;13.02;100.00;95988.66;4968231;28;19956;-86
2023/05/14 09:15:58;;;;;;;;;;;;;;;13.05;100.00;95987.34;4969792;28;19948;-86
2023/05/14 09:18:26;;;;;;;;;;;;;;;13.13;100.00;95982.31;4967112;28;19975;-87
2023/05/14 09:20:53;;;;;;;;;;;;;;;13.17;100.00;95975.34;4982430;28;19964;-84
2023/05/14 09:23:21;;;;;;;;;;;;;;;13.34;100.00;95977.13;4983605;28;20009;-88
2023/05/14 09:25:49;;;;;;;;;;;;;;;13.37;100.00;95976.59;4980904;28;19943;-85
2023/05/14 09:28:17;;;;;;;;;;;;;;;13.42;100.00;95973.94;4962295;28;19999;-86
2023/05/14 09:30:47;;;;;;;;;;;;;;;13.35;100.00;95965.19;4959756;28;19947;-85
2023/05/14 09:33:26;;;;;;;;;;;;;;;13.43;100.00;95968.28;4963175;28;20006;-85
2023/05/14 09:35:55;;;;;;;;;;;;;;;13.52;100.00;95964.00;4981750;28;19992;-88
2023/05/14 09:38:23;;;;;;;;;;;;;;;13.76;100.00;95964.47;4967628;28;19957;-85
2023/05/14 09:40:50;;;;;;;;;;;;;;;13.86;100.00;95959.13;4961424;28;20049;-86
2023/05/14 09:43:17;;;;;;;;;;;;;;;14.06;100.00;95961.16;4963503;28;19976;-87
2023/05/14 09:45:44;;;;;;;;;;;;;;;14.10;100.00;95950.59;4962559;28;20002;-85
2023/05/14 09:48:11;;;;;;;;;;;;;;;14.26;100.00;95953.13;4961783;28;19958;-85
2023/05/14 09:50:41;;;;;;;;;;;;;;;14.33;100.00;95951.00;4967020;28;20037;-81
2023/05/14 09:53:08;;;;;;;;;;;;;;;14.44;100.00;95953.81;4951245;28;19980;-82
2023/05/14 09:55:37;;;;;;;;;;;;;;;14.39;100.00;95947.25;4969607;28;19951;-81
2023/05/14 09:58:04;;;;;;;;;;;;;;;14.23;100.00;95942.78;4968940;28;20219;-82
2023/05/14 10:00:31;;;;;;;;;;;;;;;14.22;100.00;95952.00;4965671;28;19966;-82
2023/05/14 10:02:59;;;;;;;;;;;;;;;14.16;100.00;95953.06;4962845;28;19972;-81
2023/05/14 10:05:27;;;;;;;;;;;;;;;14.20;100.00;95947.94;4967350;28;19959;-84
2023/05/14 10:07:56;;;;;;;;;;;;;;;14.31;100.00;95949.63;4969093;28;19946;-84
2023/05/14 10:10:26;;;;;;;;;;;;;;;14.19;100.00;95952.56;4960604;28;19955;-82
2023/05/14 10:12:57;;;;;;;;;;;;;;;14.02;100.00;95951.91;4972531;28;20141;-82
2023/05/14 10:15:27;;;;;;;;;;;;;;;13.91;100.00;95955.63;4969494;28;19955;-84
2023/05/14 10:17:56;;;;;;;;;;;;;;;14.03;100.00;95946.19;4968837;28;20011;-83
2023/05/14 10:20:23;;;;;;;;;;;;;;;14.01;100.00;95940.22;4964883;28;19964;-86
2023/05/14 10:22:51;;;;;;;;;;;;;;;14.16;100.00;95946.81;4974502;28;19973;-84
2023/05/14 10:25:18;;;;;;;;;;;;;;;14.32;100.00;95946.66;4963503;28;19952;-82
2023/05/14 10:27:45;;;;;;;;;;;;;;;14.39;100.00;95947.25;4976195;28;20032;-82
2023/05/14 10:30:15;;;;;;;;;;;;;;;14.55;100.00;95939.16;4967401;28;20015;-82
2023/05/14 10:32:42;;;;;;;;;;;;;;;14.64;100.00;95945.72;4963054;28;19945;-82
2023/05/14 10:35:16;;;;;;;;;;;;;;;14.71;100.00;95939.00;4964980;28;20039;-82
2023/05/14 10:37:44;;;;;;;;;;;;;;;14.79;100.00;95945.00;4970487;28;19953;-82
2023/05/14 10:40:12;;;;;;;;;;;;;;;14.70;100.00;95941.97;4970422;28;19951;-82
2023/05/14 10:42:41;;;;;;;;;;;;;;;14.82;100.00;95933.56;4970851;28;19952;-82
2023/05/14 10:45:08;;;;;;;;;;;;;;;14.86;100.00;95932.78;4969800;28;19948;-82
2023/05/14 10:47:38;;;;;;;;;;;;;;;14.76;100.00;95943.63;4967073;28;20014;-82
2023/05/14 10:50:06;;;;;;;;;;;;;;;14.44;100.00;95940.22;4969650;28;19945;-82
2023/05/14 10:52:34;;;;;;;;;;;;;;;14.25;100.00;95943.34;4969879;28;19954;-82
2023/05/14 10:55:01;;;;;;;;;;;;;;;14.22;100.00;95934.91;4966426;28;19945;-82
2023/05/14 10:57:29;;;;;;;;;;;;;;;14.21;100.00;95938.69;4965102;28;19962;-82
2023/05/14 10:59:56;;;;;;;;;;;;;;;14.19;100.00;95935.44;4956874;28;19953;-82
2023/05/14 11:02:25;;;;;;;;;;;;;;;14.18;100.00;95937.34;4981105;28;19963;-82
2023/05/14 11:04:57;;;;;;;;;;;;;;;14.08;100.00;95922.88;4967391;28;19943;-82
2023/05/14 11:07:26;;;;;;;;;;;;;;;14.17;100.00;95921.31;4971073;28;19949;-82
2023/05/14 11:09:53;;;;;;;;;;;;;;;14.17;100.00;95924.84;4960116;28;19949;-81
2023/05/14 11:12:22;;;;;;;;;;;;;;;14.07;100.00;95922.06;4964446;28;19953;-81
2023/05/14 11:14:49;;;;;;;;;;;;;;;14.10;100.00;95926.16;4965742;28;19976;-82
2023/05/14 11:17:15;;;;;;;;;;;;;;;13.96;100.00;95925.78;4968289;28;19999;-79
2023/05/14 11:19:44;;;;;;;;;;;;;;;13.89;100.00;95931.44;4975380;28;19965;-79
2023/05/14 11:22:13;;;;;;;;;;;;;;;13.70;100.00;95937.53;4967698;28;19963;-78
2023/05/14 11:24:40;;;;;;;;;;;;;;;13.78;100.00;95934.38;4966042;28;19947;-78
2023/05/14 11:27:07;;;;;;;;;;;;;;;13.74;100.00;95938.66;4968032;28;19948;-79
2023/05/14 11:29:34;;;;;;;;;;;;;;;13.72;100.00;95940.81;4969936;28;19975;-80
2023/05/14 11:32:02;;;;;;;;;;;;;;;13.71;100.00;95937.28;4972259;28;19942;-80
2023/05/14 11:34:29;;;;;;;;;;;;;;;13.69;100.00;95936.75;4979226;28;19950;-80
2023/05/14 11:36:55;;;;;;;;;;;;;;;13.57;100.00;95934.22;4964510;28;20053;-80
2023/05/14 11:39:23;;;;;;;;;;;;;;;13.49;100.00;95936.56;4981137;28;19952;-80
2023/05/14 11:41:50;;;;;;;;;;;;;;;13.38;100.00;95938.38;4983544;28;19958;-80
2023/05/14 11:44:17;;;;;;;;;;;;;;;13.37;100.00;95935.91;4972198;28;19955;-79
2023/05/14 11:46:53;;;;;;;;;;;;;;;13.42;100.00;95936.78;4965387;28;20008;-79
2023/05/14 11:49:20;;;;;;;;;;;;;;;13.43;100.00;95937.63;4967679;28;19956;-79
2023/05/14 11:51:47;;;;;;;;;;;;;;;13.49;100.00;95942.81;4963987;28;20160;-79
2023/05/14 11:54:14;;;;;;;;;;;;;;;13.36;100.00;95942.41;4968425;28;19953;-79
2023/05/14 11:56:42;;;;;;;;;;;;;;;13.31;100.00;95943.19;4965912;28;19975;-79
2023/05/14 11:59:10;;;;;;;;;;;;;;;13.33;100.00;95938.34;4980045;28;19952;-79
2023/05/14 12:01:37;;;;;;;;;;;;;;;13.26;100.00;95945.88;4976466;28;19959;-80
2023/05/14 12:04:04;;;;;;;;;;;;;;;13.32;100.00;95938.59;4963002;28;19945;-80
2023/05/14 12:06:32;;;;;;;;;;;;;;;13.23;100.00;95939.06;4963623;28;19955;-79
2023/05/14 12:09:00;;;;;;;;;;;;;;;13.18;100.00;95935.50;4978910;28;19945;-79
2023/05/14 12:11:30;;;;;;;;;;;;;;;13.05;100.00;95933.16;4958796;28;19944;-79
2023/05/14 12:13:58;;;;;;;;;;;;;;;13.00;100.00;95930.41;4969814;28;19998;-78
2023/05/14 12:16:29;;;;;;;;;;;;;;;13.00;100.00;95930.41;4970039;28;19965;-78
2023/05/14 12:18:59;;;;;;;;;;;;;;;12.96;100.00;95921.94;4962143;28;19972;-79
2023/05/14 12:21:27;;;;;;;;;;;;;;;13.02;100.00;95925.50;4966078;28;19958;-80
2023/05/14 12:23:57;;;;;;;;;;;;;;;12.97;100.00;95933.59;4966174;28;20034;-80
2023/05/14 12:26:25;;;;;;;;;;;;;;;12.88;100.00;95923.22;4965963;28;19951;-79
2023/05/14 12:28:59;;;;;;;;;;;;;;;12.86;100.00;95922.66;4966634;28;19958;-80
2023/05/14 12:31:29;;;;;;;;;;;;;;;12.94;100.00;95924.09;4968522;28;19946;-80
2023/05/14 12:33:56;;;;;;;;;;;;;;;13.02;100.00;95922.81;4963458;28;20042;-80
2023/05/14 12:36:23;;;;;;;;;;;;;;;13.01;100.00;95923.91;4956992;28;19969;-80